Time;durP1;ratioP1;P1;durP2;ratioP2;P2;SDS_P1;SDS_P2;PMS_P1;PMS_P2;Temp;Humidity;BMP_temperature;BMP_pressure;BME280_temperature;BME280_humidity;BME280_pressure;Samples;Min_cycle;Max_cycle;Signal;HPM_P1;HPM_P2
2021/04/06 00:00:37;;;;;;;0.57;0.57;;;;;;;-0.81;97.16;99562.56;4992463;28;20424;-73
2021/04/06 00:03:05;;;;;;;6.70;0.43;;;;;;;-0.80;97.57;99558.00;4992274;28;20911;-74
2021/04/06 00:05:31;;;;;;;0.00;0.00;;;;;;;-0.81;97.80;99562.56;4991237;28;20432;-73
2021/04/06 00:07:59;;;;;;;0.23;0.20;;;;;;;-0.80;98.12;99556.13;4992405;28;20423;-73
2021/04/06 00:10:51;;;;;;;1.93;0.83;;;;;;;-0.79;98.33;99556.94;4992698;28;20221;-74
2021/04/06 00:13:17;;;;;;;0.20;0.10;;;;;;;-0.77;98.33;99557.47;4991652;28;20535;-74
2021/04/06 00:15:46;;;;;;;0.20;0.20;;;;;;;-0.76;98.38;99551.84;4992199;28;20904;-73
2021/04/06 00:18:14;;;;;;;0.00;0.00;;;;;;;-0.78;97.77;99553.19;4992327;28;20474;-74
2021/04/06 00:20:40;;;;;;;0.00;0.00;;;;;;;-0.75;97.72;99555.34;4992163;28;20902;-73
2021/04/06 00:23:08;;;;;;;0.37;0.37;;;;;;;-0.72;97.72;99544.94;4992284;28;20475;-73
2021/04/06 00:25:38;;;;;;;0.10;0.00;;;;;;;-0.70;97.24;99552.72;4992002;28;20448;-73
2021/04/06 00:28:07;;;;;;;0.00;0.00;;;;;;;-0.68;97.07;99542.53;4992435;28;20435;-74
2021/04/06 00:30:34;;;;;;;0.40;0.40;;;;;;;-0.66;96.90;99540.41;4993246;28;20420;-74
2021/04/06 00:33:06;;;;;;;0.00;0.00;;;;;;;-0.65;96.58;99548.19;5002522;28;20507;-73
2021/04/06 00:35:35;;;;;;;0.10;0.10;;;;;;;-0.62;96.71;99547.66;4993623;28;20900;-74
2021/04/06 00:38:02;;;;;;;0.13;0.13;;;;;;;-0.58;96.68;99547.13;4993073;28;20424;-74
2021/04/06 00:40:33;;;;;;;0.00;0.00;;;;;;;-0.60;96.21;99548.19;4991928;28;20793;-73
2021/04/06 00:43:00;;;;;;;0.10;0.10;;;;;;;-0.56;96.21;99536.97;4992242;28;20413;-73
2021/04/06 00:45:26;;;;;;;13.47;1.47;;;;;;;-0.56;96.18;99553.88;4991842;28;20783;-74
2021/04/06 00:48:03;;;;;;;0.00;0.00;;;;;;;-0.53;96.22;99555.22;4991723;28;20427;-73
2021/04/06 00:50:33;;;;;;;0.10;0.10;;;;;;;-0.53;95.98;99547.97;4991881;28;20922;-74
2021/04/06 00:52:59;;;;;;;0.10;0.10;;;;;;;-0.52;96.30;99546.91;4991897;28;20424;-73
2021/04/06 00:55:33;;;;;;;0.30;0.30;;;;;;;-0.52;96.06;99546.09;4991802;28;20432;-74
2021/04/06 00:57:58;;;;;;;0.10;0.10;;;;;;;-0.51;96.33;99550.41;4991728;28;20424;-73
2021/04/06 01:00:34;;;;;;;0.07;0.07;;;;;;;-0.50;96.68;99552.00;4991718;28;20420;-73
2021/04/06 01:03:08;;;;;;;0.00;0.00;;;;;;;-0.51;96.03;99556.56;4991776;28;20188;-74
2021/04/06 01:05:55;;;;;;;0.47;0.47;;;;;;;-0.49;96.35;99550.94;4991939;28;20516;-73
2021/04/06 01:08:22;;;;;;;0.77;0.77;;;;;;;-0.47;96.53;99551.47;4991321;28;20479;-73
2021/04/06 01:10:48;;;;;;;0.00;0.00;;;;;;;-0.47;96.41;99546.13;4991537;28;20417;-73
2021/04/06 01:13:14;;;;;;;0.00;0.00;;;;;;;-0.48;96.82;99552.56;4991234;28;20805;-74
2021/04/06 01:15:40;;;;;;;0.83;0.83;;;;;;;-0.46;96.74;99561.16;4991474;28;20169;-73
2021/04/06 01:18:05;;;;;;;0.73;0.37;;;;;;;-0.51;96.48;99561.13;4991504;28;20987;-74
2021/04/06 01:20:30;;;;;;;0.30;0.30;;;;;;;-0.53;97.69;99564.06;4991361;28;20184;-73
2021/04/06 01:22:58;;;;;;;0.00;0.00;;;;;;;-0.56;97.88;99555.75;4991314;28;20236;-74
2021/04/06 01:25:26;;;;;;;0.00;0.00;;;;;;;-0.61;98.28;99562.69;4991450;28;20181;-73
2021/04/06 01:28:06;;;;;;;0.03;0.03;;;;;;;-0.62;98.97;99560.25;4991214;28;20523;-73
2021/04/06 01:30:45;;;;;;;0.00;0.00;;;;;;;-0.62;98.59;99582.53;4991417;28;20885;-74
2021/04/06 01:33:31;;;;;;;0.00;0.00;;;;;;;-0.60;98.94;99572.34;4991099;28;20420;-74
2021/04/06 01:36:06;;;;;;;0.13;0.10;;;;;;;-0.69;98.45;99575.78;4991287;28;20420;-74
2021/04/06 01:38:33;;;;;;;0.30;0.30;;;;;;;-0.73;97.84;99588.88;4991180;28;20682;-74
2021/04/06 01:41:01;;;;;;;0.00;0.00;;;;;;;-0.78;96.90;99572.75;4990969;28;20446;-74
2021/04/06 01:43:30;;;;;;;0.00;0.00;;;;;;;-0.86;96.09;99584.00;4991095;28;20479;-74
2021/04/06 01:45:58;;;;;;;0.00;0.00;;;;;;;-0.91;95.75;99589.28;4991097;28;20472;-74
2021/04/06 01:48:27;;;;;;;0.00;0.00;;;;;;;-0.99;95.58;99592.47;4991101;28;21227;-74
2021/04/06 01:50:53;;;;;;;0.00;0.00;;;;;;;-0.99;95.54;99589.78;4991144;28;20425;-74
2021/04/06 01:53:22;;;;;;;0.00;0.00;;;;;;;-1.03;95.47;99600.19;4991010;28;20459;-73
2021/04/06 01:56:02;;;;;;;0.00;0.00;;;;;;;-1.03;95.28;99610.91;4991459;28;20424;-74
2021/04/06 01:58:29;;;;;;;0.00;0.00;;;;;;;-1.05;95.32;99598.84;4991033;28;20470;-74
2021/04/06 02:03:34;;;;;;;0.00;0.00;;;;;;;-1.06;95.80;99603.38;4995013;28;20903;-74
2021/04/06 02:06:00;;;;;;;0.00;0.00;;;;;;;-1.04;95.58;99611.97;4994821;28;20833;-74
2021/04/06 02:08:27;;;;;;;0.00;0.00;;;;;;;-1.07;95.52;99609.81;4994852;28;20907;-74
2021/04/06 02:10:54;;;;;;;0.10;0.10;;;;;;;-1.04;95.75;99614.66;4994809;28;20789;-74
2021/04/06 02:13:19;;;;;;;0.00;0.00;;;;;;;-1.04;95.42;99611.16;4994482;28;20506;-74
2021/04/06 02:16:00;;;;;;;0.00;0.00;;;;;;;-1.09;95.11;99616.50;4994919;28;20784;-74
2021/04/06 02:18:28;;;;;;;0.00;0.00;;;;;;;-1.12;95.02;99622.38;4994614;28;20205;-74
2021/04/06 02:20:55;;;;;;;0.00;0.00;;;;;;;-1.17;94.97;99625.78;4994591;28;20429;-74
2021/04/06 02:23:21;;;;;;;0.00;0.00;;;;;;;-1.20;94.52;99620.94;4994428;28;20833;-73
2021/04/06 02:25:55;;;;;;;0.00;0.00;;;;;;;-1.24;93.98;99626.03;4994402;28;20448;-74
2021/04/06 02:28:22;;;;;;;0.30;0.30;;;;;;;-1.27;93.93;99623.03;4994832;28;20847;-74
2021/04/06 02:30:59;;;;;;;0.00;0.00;;;;;;;-1.32;93.78;99626.47;4994431;28;20817;-74
2021/04/06 02:33:33;;;;;;;0.00;0.00;;;;;;;-1.34;93.70;99630.47;4994484;28;20466;-74
2021/04/06 02:36:02;;;;;;;0.00;0.00;;;;;;;-1.37;93.35;99633.66;4994334;28;20408;-74
2021/04/06 02:38:31;;;;;;;0.00;0.00;;;;;;;-1.39;93.65;99638.47;4994061;28;20454;-74
2021/04/06 02:41:08;;;;;;;0.00;0.00;;;;;;;-1.41;93.33;99628.00;4993868;28;20432;-73
2021/04/06 02:43:53;;;;;;;0.00;0.00;;;;;;;-1.48;93.39;99635.41;4994189;28;20418;-73
2021/04/06 02:46:21;;;;;;;0.00;0.00;;;;;;;-1.52;93.94;99637.78;4994141;28;20647;-73
2021/04/06 02:48:48;;;;;;;0.67;0.67;;;;;;;-1.55;93.68;99638.31;4994341;28;20427;-73
2021/04/06 02:51:14;;;;;;;0.00;0.00;;;;;;;-1.55;93.57;99640.19;4994072;28;20424;-73
2021/04/06 02:53:40;;;;;;;0.00;0.00;;;;;;;-1.55;93.72;99637.50;4993741;28;20459;-73
2021/04/06 02:56:07;;;;;;;0.00;0.00;;;;;;;-1.58;93.93;99638.81;4994299;28;20420;-73
2021/04/06 02:58:39;;;;;;;0.00;0.00;;;;;;;-1.61;93.54;99635.81;4993627;28;20652;-73
2021/04/06 03:01:15;;;;;;;0.00;0.00;;;;;;;-1.65;93.48;99634.69;4993741;28;20424;-73
2021/04/06 03:03:40;;;;;;;0.00;0.00;;;;;;;-1.71;93.55;99628.50;4993925;28;20474;-73
2021/04/06 03:06:14;;;;;;;0.00;0.00;;;;;;;-1.71;93.00;99635.72;5025489;28;20436;-73
2021/04/06 03:08:40;;;;;;;0.00;0.00;;;;;;;-1.73;93.55;99624.44;4993654;28;20181;-73
2021/04/06 03:11:11;;;;;;;0.00;0.00;;;;;;;-1.78;93.44;99633.22;4992824;28;20425;-73
2021/04/06 03:13:41;;;;;;;1.80;1.80;;;;;;;-1.80;93.48;99638.00;4993029;28;20471;-73
2021/04/06 03:16:08;;;;;;;0.00;0.00;;;;;;;-1.81;93.53;99633.72;5008521;28;20499;-73
2021/04/06 03:18:40;;;;;;;0.00;0.00;;;;;;;-1.77;93.61;99636.69;4993598;28;20939;-73
2021/04/06 03:21:07;;;;;;;0.00;0.00;;;;;;;-1.77;93.77;99634.81;4993367;28;20428;-73
2021/04/06 03:23:34;;;;;;;0.00;0.00;;;;;;;-1.72;93.83;99634.09;4993147;28;20934;-73
2021/04/06 03:26:01;;;;;;;3.10;0.60;;;;;;;-1.71;93.66;99625.00;4993311;28;20456;-73
2021/04/06 03:28:31;;;;;;;0.17;0.17;;;;;;;-1.73;93.49;99635.16;4993314;28;20428;-73
2021/04/06 03:31:20;;;;;;;0.00;0.00;;;;;;;-1.75;93.44;99626.53;4993277;28;20439;-73
2021/04/06 03:33:48;;;;;;;1.07;1.07;;;;;;;-1.80;93.45;99630.78;4989915;28;20479;-73
2021/04/06 03:36:26;;;;;;;0.00;0.00;;;;;;;-1.81;93.56;99631.03;4992923;28;20420;-73
2021/04/06 03:38:56;;;;;;;0.00;0.00;;;;;;;-1.78;93.79;99627.06;4993145;28;20485;-73
2021/04/06 03:41:24;;;;;;;0.90;0.90;;;;;;;-1.76;93.96;99624.94;4992860;28;20920;-73
2021/04/06 03:43:50;;;;;;;0.00;0.00;;;;;;;-1.72;93.77;99624.19;4992851;28;20420;-73
2021/04/06 03:46:25;;;;;;;0.00;0.00;;;;;;;-1.71;94.42;99620.47;4992974;28;20563;-72
2021/04/06 03:48:51;;;;;;;0.00;0.00;;;;;;;-1.69;94.18;99623.69;4992946;28;20914;-73
2021/04/06 03:51:28;;;;;;;0.40;0.40;;;;;;;-1.62;94.32;99635.00;4992916;28;20429;-73
2021/04/06 03:53:55;;;;;;;0.40;0.37;;;;;;;-1.59;93.91;99639.88;4992690;28;20497;-73
2021/04/06 03:56:32;;;;;;;0.33;0.33;;;;;;;-1.57;94.23;99643.09;4992788;28;20935;-72
2021/04/06 03:59:00;;;;;;;0.00;0.00;;;;;;;-1.55;93.94;99640.97;4992731;28;21006;-73
2021/04/06 04:01:26;;;;;;;0.10;0.10;;;;;;;-1.51;94.49;99643.97;4992950;28;20420;-73
2021/04/06 04:03:56;;;;;;;0.33;0.33;;;;;;;-1.44;94.58;99641.91;4992566;28;20428;-73
2021/04/06 04:06:23;;;;;;;0.40;0.40;;;;;;;-1.40;94.31;99640.34;4992498;28;20912;-73
2021/04/06 04:08:48;;;;;;;0.00;0.00;;;;;;;-1.33;94.75;99646.28;4992588;28;20664;-72
2021/04/06 04:11:14;;;;;;;2.70;0.87;;;;;;;-1.27;94.58;99652.53;4992483;28;20470;-73
2021/04/06 04:13:39;;;;;;;0.10;0.10;;;;;;;-1.20;94.52;99650.44;4992212;28;20615;-73
2021/04/06 04:16:05;;;;;;;0.00;0.00;;;;;;;-1.14;94.59;99643.25;4992376;28;20649;-73
2021/04/06 04:18:30;;;;;;;0.77;0.77;;;;;;;-1.09;94.22;99657.50;4992436;28;20203;-72
2021/04/06 04:20:55;;;;;;;0.00;0.00;;;;;;;-1.04;94.19;99646.00;4992238;28;20181;-73
2021/04/06 04:23:21;;;;;;;0.40;0.40;;;;;;;-0.99;94.49;99649.56;4991720;28;20220;-73
2021/04/06 04:25:46;;;;;;;0.30;0.30;;;;;;;-0.90;94.45;99647.22;4992199;28;20181;-73
2021/04/06 04:28:11;;;;;;;0.07;0.07;;;;;;;-0.84;94.22;99640.84;4992213;28;20188;-73
2021/04/06 04:31:11;;;;;;;0.20;0.20;;;;;;;-0.79;94.25;99640.06;4992429;28;20513;-73
2021/04/06 04:33:28;;;;;;;0.00;0.00;;;;;;;-0.74;93.74;99646.25;4989701;28;20580;-73
2021/04/06 04:35:53;;;;;;;0.10;0.10;;;;;;;-0.67;93.57;99638.00;4992053;28;20421;-73
2021/04/06 04:38:19;;;;;;;0.00;0.00;;;;;;;-0.65;93.33;99635.88;4991873;28;20184;-73
2021/04/06 04:40:44;;;;;;;0.50;0.50;;;;;;;-0.63;93.34;99636.44;4991757;28;20698;-73
2021/04/06 04:43:11;;;;;;;0.10;0.00;;;;;;;-0.61;93.08;99640.47;4991794;28;20180;-73
2021/04/06 04:45:37;;;;;;;0.10;0.10;;;;;;;-0.59;93.01;99648.25;4991932;28;20191;-73
2021/04/06 04:48:03;;;;;;;1.93;1.83;;;;;;;-0.56;92.64;99650.44;4991801;28;20487;-73
2021/04/06 04:50:28;;;;;;;0.63;0.63;;;;;;;-0.54;92.87;99642.13;4991624;28;20882;-73
2021/04/06 04:52:54;;;;;;;1.07;1.07;;;;;;;-0.53;92.33;99646.44;4990466;28;20448;-73
2021/04/06 04:55:20;;;;;;;0.27;0.27;;;;;;;-0.52;92.24;99643.47;4991786;28;20295;-73
2021/04/06 04:57:46;;;;;;;0.57;0.57;;;;;;;-0.51;92.18;99641.59;4991618;28;20173;-73
2021/04/06 05:00:13;;;;;;;0.00;0.00;;;;;;;-0.50;92.57;99640.53;4991747;28;20427;-73
2021/04/06 05:02:39;;;;;;;0.03;0.03;;;;;;;-0.50;91.88;99637.84;4991177;28;20184;-73
2021/04/06 05:05:06;;;;;;;0.27;0.27;;;;;;;-0.49;92.28;99629.53;4991531;28;20440;-73
2021/04/06 05:07:32;;;;;;;0.37;0.37;;;;;;;-0.51;91.99;99642.41;4991432;28;20181;-73
2021/04/06 05:09:58;;;;;;;3.10;0.63;;;;;;;-0.51;92.42;99641.59;4991534;28;20504;-73
2021/04/06 05:12:23;;;;;;;0.20;0.20;;;;;;;-0.52;92.74;99638.13;4991348;28;20215;-73
2021/04/06 05:14:49;;;;;;;0.50;0.50;;;;;;;-0.50;92.37;99645.91;4991407;28;20739;-73
2021/04/06 05:17:15;;;;;;;0.00;0.00;;;;;;;-0.47;92.93;99648.88;4991307;28;20656;-73
2021/04/06 05:19:41;;;;;;;0.20;0.20;;;;;;;-0.44;92.67;99650.22;4991344;28;20705;-73
2021/04/06 05:22:07;;;;;;;0.20;0.20;;;;;;;-0.42;92.24;99648.91;4991089;28;20232;-73
2021/04/06 05:24:32;;;;;;;0.00;0.00;;;;;;;-0.39;92.65;99648.41;4991349;28;20235;-73
2021/04/06 05:26:58;;;;;;;0.33;0.30;;;;;;;-0.41;92.29;99647.84;4991667;28;20424;-73
2021/04/06 05:29:23;;;;;;;0.17;0.17;;;;;;;-0.41;92.91;99649.72;4991315;28;20187;-73
2021/04/06 05:31:48;;;;;;;0.87;0.80;;;;;;;-0.43;93.22;99657.25;4991160;28;20181;-74
2021/04/06 05:34:14;;;;;;;3.80;1.83;;;;;;;-0.42;93.83;99658.84;4991213;28;20209;-73
2021/04/06 05:36:39;;;;;;;0.37;0.30;;;;;;;-0.44;94.75;99666.31;4994816;28;20177;-73
2021/04/06 05:39:05;;;;;;;0.30;0.30;;;;;;;-0.48;95.82;99662.53;4995203;28;20545;-73
2021/04/06 05:41:30;;;;;;;0.00;0.00;;;;;;;-0.51;96.57;99665.75;4993805;28;20690;-73
2021/04/06 05:44:00;;;;;;;0.37;0.37;;;;;;;-0.53;96.63;99663.31;4994922;28;20268;-73
2021/04/06 05:46:29;;;;;;;0.00;0.00;;;;;;;-0.52;96.58;99673.00;4995067;28;20672;-73
2021/04/06 05:49:01;;;;;;;0.30;0.30;;;;;;;-0.51;97.00;99671.91;4995160;28;20431;-73
2021/04/06 05:51:28;;;;;;;0.10;0.10;;;;;;;-0.45;96.77;99681.59;4995023;28;20915;-73
2021/04/06 05:53:54;;;;;;;0.10;0.10;;;;;;;-0.40;96.32;99683.53;4994769;28;20464;-77
2021/04/06 05:56:20;;;;;;;0.10;0.10;;;;;;;-0.31;96.03;99674.72;4995340;28;20423;-76
2021/04/06 05:58:45;;;;;;;0.67;0.67;;;;;;;-0.25;94.87;99683.66;4994919;28;20425;-76
2021/04/06 06:01:11;;;;;;;0.50;0.50;;;;;;;-0.25;94.36;99670.22;4994929;28;20188;-74
2021/04/06 06:03:36;;;;;;;0.10;0.10;;;;;;;-0.21;94.40;99667.81;4994606;28;20177;-74
2021/04/06 06:06:03;;;;;;;0.57;0.07;;;;;;;-0.15;93.53;99667.56;4993481;28;20260;-74
2021/04/06 06:08:29;;;;;;;0.20;0.20;;;;;;;-0.09;93.39;99671.13;4994614;28;20749;-74
2021/04/06 06:11:05;;;;;;;0.20;0.20;;;;;;;-0.02;93.16;99671.69;4994668;28;20476;-74
2021/04/06 06:13:34;;;;;;;0.17;0.17;;;;;;;0.05;92.36;99658.84;4994807;28;20852;-73
2021/04/06 06:16:06;;;;;;;3.10;0.30;;;;;;;0.11;92.01;99676.56;4994573;28;20421;-73
2021/04/06 06:18:32;;;;;;;0.20;0.20;;;;;;;0.14;91.78;99669.88;4994541;28;20431;-73
2021/04/06 06:20:58;;;;;;;0.10;0.10;;;;;;;0.12;91.47;99675.50;4994556;28;20428;-73
2021/04/06 06:23:24;;;;;;;0.00;0.00;;;;;;;0.10;91.36;99674.16;4994387;28;20177;-74
2021/04/06 06:26:07;;;;;;;0.10;0.10;;;;;;;0.11;91.81;99676.56;4994094;28;20185;-74
2021/04/06 06:28:36;;;;;;;0.10;0.10;;;;;;;0.12;91.65;99674.69;4992931;28;20886;-74
2021/04/06 06:31:05;;;;;;;0.43;0.43;;;;;;;0.17;91.06;99691.66;4994194;28;20456;-74
2021/04/06 06:33:33;;;;;;;0.40;0.40;;;;;;;0.20;90.89;99687.63;4993989;28;20499;-74
2021/04/06 06:36:05;;;;;;;1.30;0.87;;;;;;;0.19;91.01;99691.41;4994166;28;20424;-74
2021/04/06 06:38:39;;;;;;;0.13;0.13;;;;;;;0.24;91.31;99689.53;4994145;28;20436;-74
2021/04/06 06:41:07;;;;;;;0.00;0.00;;;;;;;0.27;90.74;99683.63;4993894;28;20853;-74
2021/04/06 06:43:33;;;;;;;0.03;0.03;;;;;;;0.32;91.39;99680.19;4993977;28;20943;-74
2021/04/06 06:46:00;;;;;;;0.20;0.20;;;;;;;0.31;90.87;99678.56;5009330;28;20532;-73
2021/04/06 06:48:32;;;;;;;21.40;1.27;;;;;;;0.30;90.28;99687.69;4999174;28;20456;-73
2021/04/06 06:51:01;;;;;;;0.87;0.70;;;;;;;0.30;89.96;99693.06;5002014;28;20431;-74
2021/04/06 06:53:33;;;;;;;3.50;2.03;;;;;;;0.32;90.02;99688.25;4995108;28;20828;-75
2021/04/06 06:55:59;;;;;;;0.00;0.00;;;;;;;0.37;89.91;99688.25;4994544;28;20421;-74
2021/04/06 06:58:33;;;;;;;0.00;0.00;;;;;;;0.40;89.65;99689.59;4994005;28;20427;-73
2021/04/06 07:00:58;;;;;;;0.00;0.00;;;;;;;0.49;89.44;99699.59;4994159;28;20177;-74
2021/04/06 07:03:24;;;;;;;0.10;0.10;;;;;;;0.57;89.50;99696.38;4993922;28;20424;-76
2021/04/06 07:05:49;;;;;;;0.00;0.00;;;;;;;0.61;88.64;99698.56;4993859;28;20188;-73
2021/04/06 07:08:15;;;;;;;0.10;0.10;;;;;;;0.59;88.02;99694.25;4993677;28;20264;-73
2021/04/06 07:10:43;;;;;;;0.00;0.00;;;;;;;0.57;88.39;99696.38;4993816;28;20169;-73
2021/04/06 07:13:19;;;;;;;0.73;0.50;;;;;;;0.59;88.17;99702.31;5008635;28;20178;-73
2021/04/06 07:15:47;;;;;;;0.87;0.60;;;;;;;0.68;87.78;99704.47;5008662;28;20454;-73
2021/04/06 07:18:21;;;;;;;0.30;0.30;;;;;;;0.80;87.75;99705.06;4993455;28;20434;-73
2021/04/06 07:20:59;;;;;;;0.40;0.20;;;;;;;0.79;86.99;99700.75;4993641;28;20503;-74
2021/04/06 07:23:52;;;;;;;0.77;0.77;;;;;;;0.84;87.41;99698.88;4993495;28;20507;-73
2021/04/06 07:26:19;;;;;;;0.40;0.40;;;;;;;0.93;87.19;99704.53;4993365;28;20416;-73
2021/04/06 07:28:45;;;;;;;12.43;2.20;;;;;;;0.98;86.30;99688.41;4993447;28;20420;-73
2021/04/06 07:31:12;;;;;;;0.00;0.00;;;;;;;1.05;85.89;99694.34;4993483;28;20474;-73
2021/04/06 07:33:39;;;;;;;1.70;0.60;;;;;;;1.09;85.45;99695.41;4993080;28;21014;-73
2021/04/06 07:36:10;;;;;;;0.20;0.20;;;;;;;1.19;85.45;99690.06;4993067;28;20804;-74
2021/04/06 07:38:40;;;;;;;0.00;0.00;;;;;;;1.27;84.40;99685.22;4993497;28;20494;-73
2021/04/06 07:41:06;;;;;;;0.00;0.00;;;;;;;1.35;84.93;99692.75;4992998;28;20517;-73
2021/04/06 07:43:33;;;;;;;0.10;0.10;;;;;;;1.33;84.41;99674.19;4993268;28;20450;-74
2021/04/06 07:45:58;;;;;;;1.10;1.10;;;;;;;1.35;84.51;99680.09;4992925;28;20785;-74
2021/04/06 07:48:49;;;;;;;0.73;0.73;;;;;;;1.39;83.31;99689.25;5003477;28;20421;-73
2021/04/06 07:51:22;;;;;;;0.13;0.13;;;;;;;1.46;84.25;99687.09;4993185;28;20204;-73
2021/04/06 07:53:55;;;;;;;2.50;0.97;;;;;;;1.54;83.87;99680.34;4992720;28;20467;-73
2021/04/06 07:56:42;;;;;;;0.40;0.37;;;;;;;1.61;83.31;99686.28;4992836;28;20846;-73
2021/04/06 07:59:08;;;;;;;0.57;0.50;;;;;;;1.64;82.33;99688.44;4992041;28;20464;-73
2021/04/06 08:01:33;;;;;;;0.00;0.00;;;;;;;1.74;82.81;99680.34;4992827;28;20421;-74
2021/04/06 08:04:01;;;;;;;0.20;0.20;;;;;;;1.81;81.60;99695.41;4992725;28;20695;-74
2021/04/06 08:06:28;;;;;;;0.40;0.40;;;;;;;1.81;80.75;99690.03;4992701;28;20169;-74
2021/04/06 08:08:54;;;;;;;0.67;0.67;;;;;;;1.87;81.04;99700.50;4993081;28;20841;-75
2021/04/06 08:11:33;;;;;;;0.20;0.20;;;;;;;1.83;80.51;99704.81;4992582;28;20420;-74
2021/04/06 08:13:59;;;;;;;0.00;0.00;;;;;;;1.73;80.73;99697.56;4992553;28;20204;-73
2021/04/06 08:16:24;;;;;;;0.00;0.00;;;;;;;1.67;81.83;99695.97;4992466;28;20420;-77
2021/04/06 08:18:54;;;;;;;0.40;0.40;;;;;;;1.69;81.86;99699.19;4992421;28;20169;-74
2021/04/06 08:21:24;;;;;;;0.70;0.70;;;;;;;1.74;81.85;99693.81;4992141;28;20185;-75
2021/04/06 08:23:50;;;;;;;0.03;0.03;;;;;;;1.76;81.58;99699.72;4992106;28;20423;-75
2021/04/06 08:26:35;;;;;;;2.20;2.00;;;;;;;1.67;83.89;99714.00;4992159;28;20413;-75
2021/04/06 08:29:22;;;;;;;0.33;0.33;;;;;;;1.39;86.14;99709.97;4992267;28;20181;-75
2021/04/06 08:32:14;;;;;;;0.40;0.40;;;;;;;1.28;87.92;99708.34;4992019;28;20413;-77
2021/04/06 08:34:51;;;;;;;0.57;0.57;;;;;;;1.29;88.76;99708.06;4992105;28;20456;-75
2021/04/06 08:37:18;;;;;;;1.27;1.13;;;;;;;1.45;88.88;99701.66;4992091;28;20420;-80
2021/04/06 08:39:45;;;;;;;0.50;0.50;;;;;;;1.38;88.11;99709.16;4991845;28;20428;-78
2021/04/06 08:42:14;;;;;;;1.13;0.57;;;;;;;1.49;88.40;99713.47;4991830;28;20519;-76
2021/04/06 08:44:42;;;;;;;0.10;0.10;;;;;;;1.64;87.74;99699.19;4991968;28;20413;-77
2021/04/06 08:47:08;;;;;;;0.27;0.20;;;;;;;1.71;86.10;99705.09;4990525;28;20441;-78
2021/04/06 08:49:41;;;;;;;7.07;1.43;;;;;;;1.78;82.25;99711.03;4991868;28;20878;-77
2021/04/06 08:52:11;;;;;;;1.17;1.07;;;;;;;1.87;81.44;99702.38;4991803;28;20236;-76
2021/04/06 08:54:37;;;;;;;0.00;0.00;;;;;;;2.00;80.84;99712.59;4991664;28;20910;-77
2021/04/06 08:57:05;;;;;;;0.40;0.40;;;;;;;2.23;81.33;99700.44;4991815;28;20429;-79
2021/04/06 08:59:33;;;;;;;0.10;0.00;;;;;;;2.35;79.61;99699.03;4991611;28;20184;-78
2021/04/06 09:02:04;;;;;;;0.07;0.03;;;;;;;2.44;78.58;99695.75;4991525;28;20872;-79
2021/04/06 09:04:30;;;;;;;0.80;0.80;;;;;;;2.50;76.86;99697.38;4991723;28;20471;-75
2021/04/06 09:06:56;;;;;;;10.03;1.83;;;;;;;2.55;76.70;99694.63;4991801;28;20488;-78
2021/04/06 09:09:30;;;;;;;0.27;0.27;;;;;;;2.51;75.66;99690.88;4991575;28;20188;-79
2021/04/06 09:11:58;;;;;;;0.33;0.33;;;;;;;2.62;75.87;99700.56;4991381;28;20412;-80
2021/04/06 09:14:25;;;;;;;0.20;0.20;;;;;;;2.58;73.20;99685.97;4991416;28;20197;-81
2021/04/06 09:16:52;;;;;;;1.30;0.77;;;;;;;2.62;73.71;99687.06;4991835;28;20703;-81
2021/04/06 09:19:19;;;;;;;0.20;0.20;;;;;;;2.79;73.58;99673.22;4991330;28;20911;-81
2021/04/06 09:21:56;;;;;;;3.03;0.90;;;;;;;2.77;70.84;99670.00;4991595;28;20266;-80
2021/04/06 09:24:23;;;;;;;0.67;0.67;;;;;;;3.01;72.68;99673.59;4991473;28;20724;-82
2021/04/06 09:26:51;;;;;;;0.57;0.57;;;;;;;3.13;69.78;99662.47;4991330;28;20436;-80
2021/04/06 09:29:19;;;;;;;0.20;0.20;;;;;;;3.26;71.31;99673.41;4991296;28;20224;-77
2021/04/06 09:31:52;;;;;;;0.40;0.40;;;;;;;3.27;70.46;99668.81;4991231;28;20423;-74
2021/04/06 09:34:21;;;;;;;0.00;0.00;;;;;;;3.06;69.47;99667.38;4990753;28;20467;-77
2021/04/06 09:37:06;;;;;;;17.63;3.00;;;;;;;3.23;71.53;99668.59;4990768;28;20173;-75
2021/04/06 09:39:32;;;;;;;1.93;0.63;;;;;;;3.36;70.51;99667.16;5006113;28;20188;-74
2021/04/06 09:41:58;;;;;;;0.40;0.30;;;;;;;3.38;70.15;99670.38;4990811;28;20366;-79
2021/04/06 09:44:28;;;;;;;6.83;0.83;;;;;;;3.50;69.00;99668.09;4991271;28;20190;-76
2021/04/06 09:47:00;;;;;;;0.40;0.20;;;;;;;3.68;70.05;99660.38;4990709;28;20185;-74
2021/04/06 09:49:34;;;;;;;0.17;0.17;;;;;;;3.74;67.20;99653.81;4991175;28;20617;-74
2021/04/06 09:52:04;;;;;;;1.30;0.60;;;;;;;3.45;65.25;99649.22;4990609;28;20204;-74
2021/04/06 09:54:32;;;;;;;0.00;0.00;;;;;;;3.54;67.43;99636.72;4990601;28;20200;-75
2021/04/06 09:57:10;;;;;;;0.40;0.20;;;;;;;3.94;70.05;99650.13;4991032;28;20297;-72
2021/04/06 09:59:42;;;;;;;0.50;0.50;;;;;;;3.72;63.61;99639.81;4990718;28;20223;-75
2021/04/06 10:02:14;;;;;;;0.37;0.30;;;;;;;3.39;64.97;99655.78;4990623;28;20621;-74
2021/04/06 10:04:45;;;;;;;0.27;0.27;;;;;;;3.54;66.66;99646.72;4990676;28;20169;-74
2021/04/06 10:07:19;;;;;;;5.27;0.90;;;;;;;3.75;65.77;99642.72;4990615;28;20174;-74
2021/04/06 10:09:58;;;;;;;0.40;0.40;;;;;;;4.00;63.35;99635.44;4990803;28;20521;-73
2021/04/06 10:12:26;;;;;;;0.73;0.73;;;;;;;3.01;71.89;99664.69;4990497;28;20205;-73
2021/04/06 10:14:52;;;;;;;0.30;0.30;;;;;;;1.70;82.22;99684.66;4990700;28;20469;-74
2021/04/06 10:17:34;;;;;;;0.27;0.27;;;;;;;0.83;88.39;99685.69;4990457;28;20777;-72
2021/04/06 10:20:04;;;;;;;26.67;0.77;;;;;;;0.52;90.13;99674.88;4989797;28;20177;-73
2021/04/06 10:22:49;;;;;;;0.00;0.00;;;;;;;0.52;91.99;99663.31;4992845;28;20550;-79
2021/04/06 10:25:18;;;;;;;0.10;0.10;;;;;;;0.50;92.63;99652.03;4994649;28;20884;-73
2021/04/06 10:27:48;;;;;;;0.17;0.17;;;;;;;0.76;93.49;99651.00;4994117;28;20519;-75
2021/04/06 10:30:39;;;;;;;0.00;0.00;;;;;;;1.25;93.06;99636.25;4994358;28;20424;-76
2021/04/06 10:33:13;;;;;;;0.00;0.00;;;;;;;1.86;90.32;99638.84;4993906;28;20935;-74
2021/04/06 10:35:51;;;;;;;0.10;0.10;;;;;;;2.37;88.02;99634.88;4994248;28;20472;-73
2021/04/06 10:38:19;;;;;;;0.30;0.30;;;;;;;2.54;84.09;99629.13;4994078;28;20412;-73
2021/04/06 10:40:45;;;;;;;0.00;0.00;;;;;;;2.62;82.30;99635.84;4993615;28;20428;-76
2021/04/06 10:43:18;;;;;;;1.17;0.97;;;;;;;2.71;82.68;99636.03;4993746;28;20655;-73
2021/04/06 10:45:52;;;;;;;0.07;0.07;;;;;;;2.62;79.80;99638.53;4994183;28;20272;-73
2021/04/06 10:48:23;;;;;;;1.07;0.60;;;;;;;2.43;80.28;99642.94;4993674;28;20496;-72
2021/04/06 10:50:53;;;;;;;10.50;0.43;;;;;;;2.28;82.74;99635.72;4993646;28;20948;-74
2021/04/06 10:53:24;;;;;;;0.40;0.40;;;;;;;1.93;84.22;99639.38;4993575;28;20715;-75
2021/04/06 10:56:06;;;;;;;0.30;0.30;;;;;;;1.55;85.77;99649.66;4993929;28;20404;-75
2021/04/06 10:58:39;;;;;;;1.43;0.93;;;;;;;1.49;87.64;99650.78;4993663;28;20508;-74
2021/04/06 11:01:04;;;;;;;0.00;0.00;;;;;;;1.12;88.54;99651.84;4993890;28;20515;-73
2021/04/06 11:03:57;;;;;;;0.07;0.07;;;;;;;0.83;90.36;99639.97;4993653;28;20519;-77
2021/04/06 11:06:34;;;;;;;5.53;0.67;;;;;;;0.86;91.51;99626.00;4993701;28;20648;-73
2021/04/06 11:09:10;;;;;;;0.30;0.30;;;;;;;1.26;92.91;99608.25;4993460;28;20819;-76
2021/04/06 11:11:36;;;;;;;0.03;0.03;;;;;;;1.70;93.05;99614.66;4993608;28;20483;-79
2021/04/06 11:14:05;;;;;;;0.40;0.40;;;;;;;1.86;90.56;99596.56;4993635;28;20810;-75
2021/04/06 11:16:32;;;;;;;0.37;0.37;;;;;;;2.13;87.51;99601.56;4993483;28;20413;-78
2021/04/06 11:19:08;;;;;;;0.00;0.00;;;;;;;2.53;85.84;99584.38;5008487;28;20788;-74
2021/04/06 11:21:36;;;;;;;1.70;1.60;;;;;;;2.90;82.71;99583.84;4993323;28;20173;-72
2021/04/06 11:24:02;;;;;;;0.10;0.10;;;;;;;3.32;80.63;99578.88;4993251;28;20181;-76
2021/04/06 11:26:27;;;;;;;13.00;0.30;;;;;;;3.63;76.18;99571.31;4993336;28;20181;-75
2021/04/06 11:28:53;;;;;;;0.00;0.00;;;;;;;3.85;71.08;99569.69;4993188;28;20187;-75
2021/04/06 11:31:19;;;;;;;0.57;0.50;;;;;;;4.18;69.58;99567.91;4993298;28;20264;-74
2021/04/06 11:33:44;;;;;;;0.77;0.77;;;;;;;4.11;68.22;99580.19;4990517;28;20561;-74
2021/04/06 11:36:10;;;;;;;1.03;1.03;;;;;;;3.89;67.00;99576.09;4992960;28;20261;-76
2021/04/06 11:38:36;;;;;;;1.10;1.00;;;;;;;3.35;69.90;99600.75;4993414;28;20169;-76
2021/04/06 11:41:01;;;;;;;0.10;0.10;;;;;;;2.55;72.34;99597.56;4992975;28;20193;-75
2021/04/06 11:43:27;;;;;;;0.00;0.00;;;;;;;2.36;74.27;99595.53;4993182;28;20219;-77
2021/04/06 11:45:53;;;;;;;1.20;1.07;;;;;;;2.53;75.80;99580.88;4993013;28;20181;-76
2021/04/06 11:48:18;;;;;;;1.70;0.47;;;;;;;3.10;76.94;99573.97;4992505;28;20181;-75
2021/04/06 11:50:45;;;;;;;0.20;0.20;;;;;;;3.59;75.81;99561.06;4992868;28;20224;-74